This is the latest recevied weather packets stored in our database for station/object K7ZQU-7. If no packets are shown the sender has not sent any weather packets the latest 10 day(s).
| Time | Temp. | Humidity | Pressure | Rain* | Wind** | Luminosity | Snow |
|---|---|---|---|---|---|---|---|
| 1777216842 | 5° C | 45% | 1005.4 hPa | 0 mm | 0 m/s | - | - |
| 1777216541 | 4.44° C | 52% | 1005.4 hPa | 0 mm | 0 m/s | - | - |
| 1777216293 | 3.33° C | 55% | 1005.4 hPa | 0 mm | 0 m/s | - | - |
| 1777216243 | 3.33° C | 55% | 1005.4 hPa | 0 mm | 0 m/s | - | - |
| 1777215943 | 2.22° C | 60% | 1005.4 hPa | 0 mm | 0 m/s | - | - |
| 1777215342 | 0.56° C | 70% | 1005.3 hPa | 0 mm | 0 m/s | - | - |
| 1777215043 | 0° C | 69% | 1005.4 hPa | 0 mm | 0 m/s | - | - |
| 1777214744 | -0.56° C | 70% | 1005.3 hPa | 0 mm | 0 m/s | - | - |
| 1777214445 | -0.56° C | 70% | 1005.3 hPa | 0 mm | 0 m/s | - | - |
| 1777214143 | -1.11° C | 73% | 1005.3 hPa | 0 mm | 0 m/s | - | - |
| 1777213844 | -1.11° C | 73% | 1005.3 hPa | 0 mm | 0 m/s | - | - |
| 1777213546 | -1.11° C | 74% | 1005.3 hPa | 0 mm | 0 m/s | - | - |
| 1777213246 | -1.67° C | 73% | 1005.1 hPa | 0 mm | 0 m/s | - | - |
| 1777212947 | -1.67° C | 72% | 1005.1 hPa | 0 mm | 0 m/s | - | - |
| 1777212645 | -1.67° C | 73% | 1005.3 hPa | 0 mm | 0 m/s | - | - |
| 1777211751 | -1.67° C | 72% | 1005 hPa | 0 mm | 0 m/s | - | - |
| 1777211450 | -1.67° C | 71% | 1005 hPa | 0 mm | 0 m/s | - | - |
| 1777211147 | -1.67° C | 70% | 1005 hPa | 0 mm | 0 m/s | - | - |
| 1777210848 | -1.67° C | 71% | 1005 hPa | 0 mm | 0 m/s | - | - |
| 1777210550 | -1.67° C | 71% | 1005 hPa | 0 mm | 0 m/s | - | - |
| 1777210250 | -1.67° C | 74% | 1005 hPa | 0 mm | 0 m/s | - | - |
| 1777209951 | -1.67° C | 71% | 1004.9 hPa | 0 mm | 0 m/s | - | - |
| 1777209649 | -1.67° C | 71% | 1004.9 hPa | 0 mm | 0 m/s | - | - |
| 1777209350 | -1.67° C | 72% | 1004.9 hPa | 0 mm | 0 m/s | - | - |
| 1777209051 | -1.67° C | 69% | 1004.9 hPa | 0 mm | 0 m/s | - | - |
* Rain latest hour (hover to see other rain measurements)
** Current wind speed in m/s (hover to see current wind gust speed)